sensor_id;sensor_type;location;lat;lon;timestamp;temperature;humidity
1468;DHT22;727;48.892;9.544;2023-11-19T00:00:46;7.60;99.90
1468;DHT22;727;48.892;9.544;2023-11-19T00:03:14;7.60;99.90
1468;DHT22;727;48.892;9.544;2023-11-19T00:05:41;7.60;99.90
1468;DHT22;727;48.892;9.544;2023-11-19T00:08:08;7.60;99.90
1468;DHT22;727;48.892;9.544;2023-11-19T00:10:35;7.60;99.90
1468;DHT22;727;48.892;9.544;2023-11-19T00:13:02;7.60;99.90
1468;DHT22;727;48.892;9.544;2023-11-19T00:15:29;7.60;99.90
1468;DHT22;727;48.892;9.544;2023-11-19T00:17:56;7.60;99.90
1468;DHT22;727;48.892;9.544;2023-11-19T00:20:24;7.60;99.90
1468;DHT22;727;48.892;9.544;2023-11-19T00:22:51;7.70;99.90
1468;DHT22;727;48.892;9.544;2023-11-19T00:25:18;7.80;99.90
1468;DHT22;727;48.892;9.544;2023-11-19T00:27:45;7.80;99.90
1468;DHT22;727;48.892;9.544;2023-11-19T00:30:12;7.80;99.90
1468;DHT22;727;48.892;9.544;2023-11-19T00:32:40;7.80;99.90
1468;DHT22;727;48.892;9.544;2023-11-19T00:35:08;7.90;99.90
1468;DHT22;727;48.892;9.544;2023-11-19T00:37:36;7.90;99.90
1468;DHT22;727;48.892;9.544;2023-11-19T00:40:04;7.90;99.90
1468;DHT22;727;48.892;9.544;2023-11-19T00:42:31;7.90;99.90
1468;DHT22;727;48.892;9.544;2023-11-19T00:44:58;7.90;99.90
1468;DHT22;727;48.892;9.544;2023-11-19T00:47:26;7.90;99.90
1468;DHT22;727;48.892;9.544;2023-11-19T00:49:53;7.90;99.90
1468;DHT22;727;48.892;9.544;2023-11-19T00:52:20;7.90;99.90
1468;DHT22;727;48.892;9.544;2023-11-19T00:54:48;7.90;99.90
1468;DHT22;727;48.892;9.544;2023-11-19T00:57:16;8.00;99.90
1468;DHT22;727;48.892;9.544;2023-11-19T00:59:43;8.00;99.90
1468;DHT22;727;48.892;9.544;2023-11-19T01:02:10;8.00;99.90
1468;DHT22;727;48.892;9.544;2023-11-19T01:04:37;8.00;99.90
1468;DHT22;727;48.892;9.544;2023-11-19T01:07:05;8.00;99.90
1468;DHT22;727;48.892;9.544;2023-11-19T01:09:32;8.00;99.90
1468;DHT22;727;48.892;9.544;2023-11-19T01:12:02;8.10;99.90
1468;DHT22;727;48.892;9.544;2023-11-19T01:14:29;8.20;99.90
1468;DHT22;727;48.892;9.544;2023-11-19T01:16:56;8.10;99.90
1468;DHT22;727;48.892;9.544;2023-11-19T01:19:23;8.10;99.90
1468;DHT22;727;48.892;9.544;2023-11-19T01:21:50;8.10;99.90
1468;DHT22;727;48.892;9.544;2023-11-19T01:24:17;8.10;99.90
1468;DHT22;727;48.892;9.544;2023-11-19T01:26:44;8.10;99.90
1468;DHT22;727;48.892;9.544;2023-11-19T01:29:12;8.10;99.90
1468;DHT22;727;48.892;9.544;2023-11-19T01:31:40;8.10;99.90
1468;DHT22;727;48.892;9.544;2023-11-19T01:34:07;8.10;99.90
1468;DHT22;727;48.892;9.544;2023-11-19T01:36:33;8.10;99.90
1468;DHT22;727;48.892;9.544;2023-11-19T01:39:01;8.10;99.90
1468;DHT22;727;48.892;9.544;2023-11-19T01:41:28;8.10;99.90
1468;DHT22;727;48.892;9.544;2023-11-19T01:43:55;8.20;99.90
1468;DHT22;727;48.892;9.544;2023-11-19T01:46:23;8.20;99.90
1468;DHT22;727;48.892;9.544;2023-11-19T01:48:51;8.20;99.90
1468;DHT22;727;48.892;9.544;2023-11-19T01:51:19;8.20;99.90
1468;DHT22;727;48.892;9.544;2023-11-19T01:53:48;8.20;99.90
1468;DHT22;727;48.892;9.544;2023-11-19T01:56:16;8.30;99.90
1468;DHT22;727;48.892;9.544;2023-11-19T01:58:43;8.20;99.90
1468;DHT22;727;48.892;9.544;2023-11-19T02:01:11;8.30;99.90
1468;DHT22;727;48.892;9.544;2023-11-19T02:03:40;8.30;99.90
1468;DHT22;727;48.892;9.544;2023-11-19T02:06:07;8.30;99.90
1468;DHT22;727;48.892;9.544;2023-11-19T02:08:35;8.30;99.90
1468;DHT22;727;48.892;9.544;2023-11-19T02:11:02;8.20;99.90
1468;DHT22;727;48.892;9.544;2023-11-19T02:13:30;8.20;99.90
1468;DHT22;727;48.892;9.544;2023-11-19T02:15:56;8.30;99.90
1468;DHT22;727;48.892;9.544;2023-11-19T02:18:26;8.30;99.90
1468;DHT22;727;48.892;9.544;2023-11-19T02:20:55;8.30;99.90
1468;DHT22;727;48.892;9.544;2023-11-19T02:23:22;8.30;99.90
1468;DHT22;727;48.892;9.544;2023-11-19T02:26:00;8.30;99.90
1468;DHT22;727;48.892;9.544;2023-11-19T02:28:29;8.40;99.90
1468;DHT22;727;48.892;9.544;2023-11-19T02:30:56;8.40;99.90
1468;DHT22;727;48.892;9.544;2023-11-19T02:33:23;8.50;99.90
1468;DHT22;727;48.892;9.544;2023-11-19T02:35:50;8.50;99.90
1468;DHT22;727;48.892;9.544;2023-11-19T02:38:17;8.50;99.90
1468;DHT22;727;48.892;9.544;2023-11-19T02:40:44;8.50;99.90
1468;DHT22;727;48.892;9.544;2023-11-19T02:43:10;8.50;99.90
1468;DHT22;727;48.892;9.544;2023-11-19T02:45:40;8.50;99.90
1468;DHT22;727;48.892;9.544;2023-11-19T02:48:07;8.50;99.90
1468;DHT22;727;48.892;9.544;2023-11-19T02:50:35;8.50;99.90
1468;DHT22;727;48.892;9.544;2023-11-19T02:53:02;8.50;99.90
1468;DHT22;727;48.892;9.544;2023-11-19T02:55:29;8.60;99.90
1468;DHT22;727;48.892;9.544;2023-11-19T02:58:01;8.60;99.90
1468;DHT22;727;48.892;9.544;2023-11-19T03:00:33;8.60;99.90
1468;DHT22;727;48.892;9.544;2023-11-19T03:03:04;8.60;99.90
1468;DHT22;727;48.892;9.544;2023-11-19T03:05:43;8.60;99.90
1468;DHT22;727;48.892;9.544;2023-11-19T03:08:10;8.70;99.90
1468;DHT22;727;48.892;9.544;2023-11-19T03:10:38;8.70;99.90
1468;DHT22;727;48.892;9.544;2023-11-19T03:13:05;8.70;99.90
1468;DHT22;727;48.892;9.544;2023-11-19T03:15:33;8.70;99.90
1468;DHT22;727;48.892;9.544;2023-11-19T03:17:59;8.70;99.90
1468;DHT22;727;48.892;9.544;2023-11-19T03:20:28;8.70;99.90
1468;DHT22;727;48.892;9.544;2023-11-19T03:22:55;8.70;99.90
1468;DHT22;727;48.892;9.544;2023-11-19T03:25:25;8.70;99.90
1468;DHT22;727;48.892;9.544;2023-11-19T03:27:52;8.80;99.90
1468;DHT22;727;48.892;9.544;2023-11-19T03:30:19;8.80;99.90
1468;DHT22;727;48.892;9.544;2023-11-19T03:32:46;8.80;99.90
1468;DHT22;727;48.892;9.544;2023-11-19T03:35:13;8.80;99.90
1468;DHT22;727;48.892;9.544;2023-11-19T03:37:41;8.70;99.90
1468;DHT22;727;48.892;9.544;2023-11-19T03:40:09;8.80;99.90
1468;DHT22;727;48.892;9.544;2023-11-19T03:42:36;8.80;99.90
1468;DHT22;727;48.892;9.544;2023-11-19T03:45:05;8.80;99.90
1468;DHT22;727;48.892;9.544;2023-11-19T03:47:34;8.80;99.90
1468;DHT22;727;48.892;9.544;2023-11-19T03:50:01;8.80;99.90
1468;DHT22;727;48.892;9.544;2023-11-19T03:52:28;8.80;99.90
1468;DHT22;727;48.892;9.544;2023-11-19T03:54:56;8.80;99.90
1468;DHT22;727;48.892;9.544;2023-11-19T03:57:23;8.80;99.90
1468;DHT22;727;48.892;9.544;2023-11-19T03:59:50;8.80;99.90
1468;DHT22;727;48.892;9.544;2023-11-19T04:02:17;8.80;99.90
1468;DHT22;727;48.892;9.544;2023-11-19T04:04:44;8.80;99.90
1468;DHT22;727;48.892;9.544;2023-11-19T04:07:11;8.80;99.90
1468;DHT22;727;48.892;9.544;2023-11-19T04:09:38;8.90;99.90
1468;DHT22;727;48.892;9.544;2023-11-19T04:12:06;8.90;99.90
1468;DHT22;727;48.892;9.544;2023-11-19T04:14:33;8.90;99.90
1468;DHT22;727;48.892;9.544;2023-11-19T04:17:00;8.90;99.90
1468;DHT22;727;48.892;9.544;2023-11-19T04:19:28;8.90;99.90
1468;DHT22;727;48.892;9.544;2023-11-19T04:21:54;8.90;99.90
1468;DHT22;727;48.892;9.544;2023-11-19T04:24:21;8.90;99.90
1468;DHT22;727;48.892;9.544;2023-11-19T04:26:48;8.90;99.90
1468;DHT22;727;48.892;9.544;2023-11-19T04:29:16;8.90;99.90
1468;DHT22;727;48.892;9.544;2023-11-19T04:31:43;8.80;99.90
1468;DHT22;727;48.892;9.544;2023-11-19T04:34:11;8.90;99.90
1468;DHT22;727;48.892;9.544;2023-11-19T04:36:38;8.90;99.90
1468;DHT22;727;48.892;9.544;2023-11-19T04:39:05;8.90;99.90
1468;DHT22;727;48.892;9.544;2023-11-19T04:41:35;8.90;99.90
1468;DHT22;727;48.892;9.544;2023-11-19T04:44:01;8.90;99.90
1468;DHT22;727;48.892;9.544;2023-11-19T04:46:30;8.90;99.90
1468;DHT22;727;48.892;9.544;2023-11-19T04:48:56;8.90;99.90
1468;DHT22;727;48.892;9.544;2023-11-19T04:51:23;8.90;99.90
1468;DHT22;727;48.892;9.544;2023-11-19T04:53:50;8.90;99.90
1468;DHT22;727;48.892;9.544;2023-11-19T04:56:16;9.00;99.90
1468;DHT22;727;48.892;9.544;2023-11-19T04:58:45;9.00;99.90
1468;DHT22;727;48.892;9.544;2023-11-19T05:01:14;9.00;99.90
1468;DHT22;727;48.892;9.544;2023-11-19T05:03:44;9.00;99.90
1468;DHT22;727;48.892;9.544;2023-11-19T05:06:10;9.00;99.90
1468;DHT22;727;48.892;9.544;2023-11-19T05:08:37;9.00;99.90
1468;DHT22;727;48.892;9.544;2023-11-19T05:11:04;9.00;99.90
1468;DHT22;727;48.892;9.544;2023-11-19T05:13:32;9.00;99.90
1468;DHT22;727;48.892;9.544;2023-11-19T05:15:58;9.00;99.90
1468;DHT22;727;48.892;9.544;2023-11-19T05:18:25;9.10;99.90
1468;DHT22;727;48.892;9.544;2023-11-19T05:20:53;9.00;99.90
1468;DHT22;727;48.892;9.544;2023-11-19T05:23:20;9.10;99.90
1468;DHT22;727;48.892;9.544;2023-11-19T05:25:47;9.10;99.90
1468;DHT22;727;48.892;9.544;2023-11-19T05:28:13;9.10;99.90
1468;DHT22;727;48.892;9.544;2023-11-19T05:30:40;9.10;99.90
1468;DHT22;727;48.892;9.544;2023-11-19T05:33:07;9.10;99.90
1468;DHT22;727;48.892;9.544;2023-11-19T05:35:34;9.20;99.90
1468;DHT22;727;48.892;9.544;2023-11-19T05:38:03;9.20;99.90
1468;DHT22;727;48.892;9.544;2023-11-19T05:40:31;9.20;99.90
1468;DHT22;727;48.892;9.544;2023-11-19T05:42:58;9.20;99.90
1468;DHT22;727;48.892;9.544;2023-11-19T05:45:25;9.20;99.90
1468;DHT22;727;48.892;9.544;2023-11-19T05:47:52;9.20;99.90
1468;DHT22;727;48.892;9.544;2023-11-19T05:50:19;9.20;99.90
1468;DHT22;727;48.892;9.544;2023-11-19T05:52:46;9.30;99.90
1468;DHT22;727;48.892;9.544;2023-11-19T05:55:14;9.30;99.90
1468;DHT22;727;48.892;9.544;2023-11-19T05:57:41;9.40;99.90
1468;DHT22;727;48.892;9.544;2023-11-19T06:00:08;9.40;99.90
1468;DHT22;727;48.892;9.544;2023-11-19T06:02:38;9.40;99.90
1468;DHT22;727;48.892;9.544;2023-11-19T06:05:05;9.40;99.90
1468;DHT22;727;48.892;9.544;2023-11-19T06:07:33;9.40;99.90
1468;DHT22;727;48.892;9.544;2023-11-19T06:10:00;9.40;99.90
1468;DHT22;727;48.892;9.544;2023-11-19T06:12:29;9.40;99.90
1468;DHT22;727;48.892;9.544;2023-11-19T06:14:57;9.40;99.90
1468;DHT22;727;48.892;9.544;2023-11-19T06:17:24;9.40;99.90
1468;DHT22;727;48.892;9.544;2023-11-19T06:19:50;9.50;99.90
1468;DHT22;727;48.892;9.544;2023-11-19T06:22:17;9.50;99.90
1468;DHT22;727;48.892;9.544;2023-11-19T06:24:44;9.60;99.90
1468;DHT22;727;48.892;9.544;2023-11-19T06:27:11;9.60;99.90
1468;DHT22;727;48.892;9.544;2023-11-19T06:29:39;9.60;99.90
1468;DHT22;727;48.892;9.544;2023-11-19T06:32:06;9.60;99.90
1468;DHT22;727;48.892;9.544;2023-11-19T06:34:33;9.60;99.90
1468;DHT22;727;48.892;9.544;2023-11-19T06:37:00;9.60;99.90
1468;DHT22;727;48.892;9.544;2023-11-19T06:39:28;9.60;99.90
1468;DHT22;727;48.892;9.544;2023-11-19T06:41:55;9.60;99.90
1468;DHT22;727;48.892;9.544;2023-11-19T06:44:22;9.60;99.90
1468;DHT22;727;48.892;9.544;2023-11-19T06:46:51;9.60;99.90
1468;DHT22;727;48.892;9.544;2023-11-19T06:49:19;9.60;99.90
1468;DHT22;727;48.892;9.544;2023-11-19T06:51:46;9.60;99.90
1468;DHT22;727;48.892;9.544;2023-11-19T06:54:12;9.70;99.90
1468;DHT22;727;48.892;9.544;2023-11-19T06:56:39;9.70;99.90
1468;DHT22;727;48.892;9.544;2023-11-19T06:59:07;9.70;99.90
1468;DHT22;727;48.892;9.544;2023-11-19T07:01:34;9.80;99.90
1468;DHT22;727;48.892;9.544;2023-11-19T07:04:03;9.80;99.90
1468;DHT22;727;48.892;9.544;2023-11-19T07:06:34;9.80;99.90
1468;DHT22;727;48.892;9.544;2023-11-19T07:09:02;9.80;99.90
1468;DHT22;727;48.892;9.544;2023-11-19T07:11:35;9.90;99.90
1468;DHT22;727;48.892;9.544;2023-11-19T07:14:02;9.90;99.90
1468;DHT22;727;48.892;9.544;2023-11-19T07:16:29;10.00;99.90
1468;DHT22;727;48.892;9.544;2023-11-19T07:18:56;10.00;99.90
1468;DHT22;727;48.892;9.544;2023-11-19T07:21:25;10.10;99.90
1468;DHT22;727;48.892;9.544;2023-11-19T07:23:53;10.20;99.90
1468;DHT22;727;48.892;9.544;2023-11-19T07:26:20;10.30;99.90
1468;DHT22;727;48.892;9.544;2023-11-19T07:28:47;10.40;99.90
1468;DHT22;727;48.892;9.544;2023-11-19T07:31:14;10.50;99.90
1468;DHT22;727;48.892;9.544;2023-11-19T07:33:40;10.60;99.90
1468;DHT22;727;48.892;9.544;2023-11-19T07:36:08;10.70;99.90
1468;DHT22;727;48.892;9.544;2023-11-19T07:38:37;10.80;99.90
1468;DHT22;727;48.892;9.544;2023-11-19T07:41:05;10.80;99.90
1468;DHT22;727;48.892;9.544;2023-11-19T07:43:32;10.80;99.90
1468;DHT22;727;48.892;9.544;2023-11-19T07:45:59;10.90;99.90
1468;DHT22;727;48.892;9.544;2023-11-19T07:48:27;10.80;99.90
1468;DHT22;727;48.892;9.544;2023-11-19T07:50:54;10.80;99.90
1468;DHT22;727;48.892;9.544;2023-11-19T07:53:20;10.80;99.90
1468;DHT22;727;48.892;9.544;2023-11-19T07:55:49;10.80;99.90
1468;DHT22;727;48.892;9.544;2023-11-19T07:58:15;10.80;99.90
1468;DHT22;727;48.892;9.544;2023-11-19T08:00:42;10.90;99.90
1468;DHT22;727;48.892;9.544;2023-11-19T08:03:10;10.90;99.90
1468;DHT22;727;48.892;9.544;2023-11-19T08:05:37;10.90;99.90
1468;DHT22;727;48.892;9.544;2023-11-19T08:08:04;11.00;99.90
1468;DHT22;727;48.892;9.544;2023-11-19T08:10:31;11.00;99.90
1468;DHT22;727;48.892;9.544;2023-11-19T08:13:00;11.00;99.90
1468;DHT22;727;48.892;9.544;2023-11-19T08:15:27;11.00;99.90
1468;DHT22;727;48.892;9.544;2023-11-19T08:17:55;11.10;99.90
1468;DHT22;727;48.892;9.544;2023-11-19T08:20:22;11.10;99.90
1468;DHT22;727;48.892;9.544;2023-11-19T08:22:49;11.20;99.90
1468;DHT22;727;48.892;9.544;2023-11-19T08:25:17;11.20;99.90
1468;DHT22;727;48.892;9.544;2023-11-19T08:27:44;11.30;99.90
1468;DHT22;727;48.892;9.544;2023-11-19T08:30:14;11.40;99.90
1468;DHT22;727;48.892;9.544;2023-11-19T08:32:40;11.40;99.90
1468;DHT22;727;48.892;9.544;2023-11-19T08:35:08;11.50;99.90
1468;DHT22;727;48.892;9.544;2023-11-19T08:37:35;11.60;99.90
1468;DHT22;727;48.892;9.544;2023-11-19T08:40:05;11.60;99.90
1468;DHT22;727;48.892;9.544;2023-11-19T08:42:32;11.70;99.90
1468;DHT22;727;48.892;9.544;2023-11-19T08:44:59;11.80;99.90
1468;DHT22;727;48.892;9.544;2023-11-19T08:47:27;11.80;99.90
1468;DHT22;727;48.892;9.544;2023-11-19T08:49:54;11.80;99.90
1468;DHT22;727;48.892;9.544;2023-11-19T08:52:21;11.90;99.90
1468;DHT22;727;48.892;9.544;2023-11-19T08:54:48;11.80;99.90
1468;DHT22;727;48.892;9.544;2023-11-19T08:57:15;11.80;99.90
1468;DHT22;727;48.892;9.544;2023-11-19T08:59:42;11.70;99.90
1468;DHT22;727;48.892;9.544;2023-11-19T09:02:11;11.70;99.90
1468;DHT22;727;48.892;9.544;2023-11-19T09:04:39;11.80;99.90
1468;DHT22;727;48.892;9.544;2023-11-19T09:07:06;11.70;99.90
1468;DHT22;727;48.892;9.544;2023-11-19T09:09:35;11.80;99.90
1468;DHT22;727;48.892;9.544;2023-11-19T09:12:07;11.80;99.90
1468;DHT22;727;48.892;9.544;2023-11-19T09:14:33;11.90;99.90
1468;DHT22;727;48.892;9.544;2023-11-19T09:17:00;12.00;99.90
1468;DHT22;727;48.892;9.544;2023-11-19T09:19:27;12.00;99.90
1468;DHT22;727;48.892;9.544;2023-11-19T09:21:55;12.00;99.90
1468;DHT22;727;48.892;9.544;2023-11-19T09:24:22;12.10;99.90
1468;DHT22;727;48.892;9.544;2023-11-19T09:26:49;12.10;99.90
1468;DHT22;727;48.892;9.544;2023-11-19T09:29:15;12.20;99.90
1468;DHT22;727;48.892;9.544;2023-11-19T09:31:42;12.20;99.90
1468;DHT22;727;48.892;9.544;2023-11-19T09:34:09;12.30;99.90
1468;DHT22;727;48.892;9.544;2023-11-19T09:36:36;12.30;99.90
1468;DHT22;727;48.892;9.544;2023-11-19T09:39:04;12.20;99.90
1468;DHT22;727;48.892;9.544;2023-11-19T09:41:33;12.20;99.90
1468;DHT22;727;48.892;9.544;2023-11-19T09:44:00;12.20;99.90
1468;DHT22;727;48.892;9.544;2023-11-19T09:46:27;12.20;99.90
1468;DHT22;727;48.892;9.544;2023-11-19T09:48:56;12.30;99.90
1468;DHT22;727;48.892;9.544;2023-11-19T09:51:25;12.30;99.90
1468;DHT22;727;48.892;9.544;2023-11-19T09:53:52;12.30;99.90
1468;DHT22;727;48.892;9.544;2023-11-19T09:56:20;12.20;99.90
1468;DHT22;727;48.892;9.544;2023-11-19T09:58:47;12.20;99.90
1468;DHT22;727;48.892;9.544;2023-11-19T10:01:14;12.20;99.90
1468;DHT22;727;48.892;9.544;2023-11-19T10:03:42;12.20;99.90
1468;DHT22;727;48.892;9.544;2023-11-19T10:06:09;12.20;99.90
1468;DHT22;727;48.892;9.544;2023-11-19T10:08:38;12.20;99.90
1468;DHT22;727;48.892;9.544;2023-11-19T10:11:05;12.30;99.90
1468;DHT22;727;48.892;9.544;2023-11-19T10:13:35;12.40;99.90
1468;DHT22;727;48.892;9.544;2023-11-19T10:16:07;12.50;99.90
1468;DHT22;727;48.892;9.544;2023-11-19T10:18:34;12.60;99.90
1468;DHT22;727;48.892;9.544;2023-11-19T10:21:04;12.70;99.90
1468;DHT22;727;48.892;9.544;2023-11-19T10:23:31;12.90;99.90
1468;DHT22;727;48.892;9.544;2023-11-19T10:26:03;12.90;99.90
1468;DHT22;727;48.892;9.544;2023-11-19T10:28:39;13.10;99.90
1468;DHT22;727;48.892;9.544;2023-11-19T10:31:08;13.20;99.90
1468;DHT22;727;48.892;9.544;2023-11-19T10:33:34;13.30;99.90
1468;DHT22;727;48.892;9.544;2023-11-19T10:36:01;13.20;99.90
1468;DHT22;727;48.892;9.544;2023-11-19T10:38:28;13.20;99.90
1468;DHT22;727;48.892;9.544;2023-11-19T10:40:56;13.30;99.90
1468;DHT22;727;48.892;9.544;2023-11-19T10:43:23;13.30;99.90
1468;DHT22;727;48.892;9.544;2023-11-19T10:45:51;13.30;99.90
1468;DHT22;727;48.892;9.544;2023-11-19T10:48:18;13.50;99.90
1468;DHT22;727;48.892;9.544;2023-11-19T10:50:52;13.80;99.90
1468;DHT22;727;48.892;9.544;2023-11-19T10:53:21;14.00;99.90
1468;DHT22;727;48.892;9.544;2023-11-19T10:55:51;14.10;99.90
1468;DHT22;727;48.892;9.544;2023-11-19T10:58:20;14.40;99.90
1468;DHT22;727;48.892;9.544;2023-11-19T11:00:52;14.70;99.90
1468;DHT22;727;48.892;9.544;2023-11-19T11:03:21;14.80;99.90
1468;DHT22;727;48.892;9.544;2023-11-19T11:05:49;14.80;99.90
1468;DHT22;727;48.892;9.544;2023-11-19T11:08:17;14.90;99.90
1468;DHT22;727;48.892;9.544;2023-11-19T11:10:46;15.50;99.90
1468;DHT22;727;48.892;9.544;2023-11-19T11:13:14;15.80;99.90
1468;DHT22;727;48.892;9.544;2023-11-19T11:15:41;16.40;99.90
1468;DHT22;727;48.892;9.544;2023-11-19T11:18:09;16.70;99.90
1468;DHT22;727;48.892;9.544;2023-11-19T11:20:37;16.80;99.90
1468;DHT22;727;48.892;9.544;2023-11-19T11:23:43;17.20;99.90
1468;DHT22;727;48.892;9.544;2023-11-19T11:26:26;17.60;99.90
1468;DHT22;727;48.892;9.544;2023-11-19T11:29:01;17.50;99.90
1468;DHT22;727;48.892;9.544;2023-11-19T11:31:36;17.30;99.90
1468;DHT22;727;48.892;9.544;2023-11-19T11:34:27;17.30;99.90
1468;DHT22;727;48.892;9.544;2023-11-19T11:37:06;18.80;99.90
1468;DHT22;727;48.892;9.544;2023-11-19T11:39:34;20.10;99.90
1468;DHT22;727;48.892;9.544;2023-11-19T11:42:34;20.30;99.60
1468;DHT22;727;48.892;9.544;2023-11-19T11:45:03;19.90;98.90
1468;DHT22;727;48.892;9.544;2023-11-19T11:48:10;19.60;98.70
1468;DHT22;727;48.892;9.544;2023-11-19T11:50:50;19.00;99.20
1468;DHT22;727;48.892;9.544;2023-11-19T11:53:18;18.50;98.90
1468;DHT22;727;48.892;9.544;2023-11-19T11:56:03;18.20;99.70
1468;DHT22;727;48.892;9.544;2023-11-19T11:58:34;19.30;98.90
1468;DHT22;727;48.892;9.544;2023-11-19T12:01:03;20.80;95.70
1468;DHT22;727;48.892;9.544;2023-11-19T12:03:33;21.30;93.90
1468;DHT22;727;48.892;9.544;2023-11-19T12:06:01;22.10;93.40
1468;DHT22;727;48.892;9.544;2023-11-19T12:08:29;22.90;90.80
1468;DHT22;727;48.892;9.544;2023-11-19T12:10:57;22.60;91.20
1468;DHT22;727;48.892;9.544;2023-11-19T12:13:29;22.90;90.50
1468;DHT22;727;48.892;9.544;2023-11-19T12:16:08;23.20;90.00
1468;DHT22;727;48.892;9.544;2023-11-19T12:18:39;24.30;85.90
1468;DHT22;727;48.892;9.544;2023-11-19T12:21:08;24.80;83.40
1468;DHT22;727;48.892;9.544;2023-11-19T12:23:45;25.40;80.10
1468;DHT22;727;48.892;9.544;2023-11-19T12:26:35;25.40;79.10
1468;DHT22;727;48.892;9.544;2023-11-19T12:29:03;24.30;79.70
1468;DHT22;727;48.892;9.544;2023-11-19T12:31:32;22.50;84.30
1468;DHT22;727;48.892;9.544;2023-11-19T12:34:05;21.40;88.60
1468;DHT22;727;48.892;9.544;2023-11-19T12:36:35;20.20;91.80
1468;DHT22;727;48.892;9.544;2023-11-19T12:39:02;19.20;92.90
1468;DHT22;727;48.892;9.544;2023-11-19T12:41:29;18.50;94.60
1468;DHT22;727;48.892;9.544;2023-11-19T12:44:09;17.90;95.90
1468;DHT22;727;48.892;9.544;2023-11-19T12:46:36;17.60;95.70
1468;DHT22;727;48.892;9.544;2023-11-19T12:49:03;17.00;96.80
1468;DHT22;727;48.892;9.544;2023-11-19T12:51:32;16.60;98.00
1468;DHT22;727;48.892;9.544;2023-11-19T12:53:59;16.10;99.10
1468;DHT22;727;48.892;9.544;2023-11-19T12:56:26;15.90;99.90
1468;DHT22;727;48.892;9.544;2023-11-19T12:58:52;15.60;99.90
1468;DHT22;727;48.892;9.544;2023-11-19T13:01:20;15.60;99.90
1468;DHT22;727;48.892;9.544;2023-11-19T13:03:47;16.20;99.90
1468;DHT22;727;48.892;9.544;2023-11-19T13:06:16;16.60;99.90
1468;DHT22;727;48.892;9.544;2023-11-19T13:08:48;16.70;99.90
1468;DHT22;727;48.892;9.544;2023-11-19T13:11:30;16.70;99.50
1468;DHT22;727;48.892;9.544;2023-11-19T13:13:58;16.40;99.90
1468;DHT22;727;48.892;9.544;2023-11-19T13:16:26;16.20;99.90
1468;DHT22;727;48.892;9.544;2023-11-19T13:18:53;16.00;99.90
1468;DHT22;727;48.892;9.544;2023-11-19T13:21:20;15.80;99.60
1468;DHT22;727;48.892;9.544;2023-11-19T13:23:49;15.70;99.40
1468;DHT22;727;48.892;9.544;2023-11-19T13:26:16;15.70;99.90
1468;DHT22;727;48.892;9.544;2023-11-19T13:28:43;15.50;99.90
1468;DHT22;727;48.892;9.544;2023-11-19T13:31:09;15.40;99.90
1468;DHT22;727;48.892;9.544;2023-11-19T13:33:36;15.40;99.90
1468;DHT22;727;48.892;9.544;2023-11-19T13:36:04;15.40;99.90
1468;DHT22;727;48.892;9.544;2023-11-19T13:38:33;15.30;99.90
1468;DHT22;727;48.892;9.544;2023-11-19T13:41:01;15.20;99.90
1468;DHT22;727;48.892;9.544;2023-11-19T13:43:28;15.10;99.90
1468;DHT22;727;48.892;9.544;2023-11-19T13:45:54;15.20;99.90
1468;DHT22;727;48.892;9.544;2023-11-19T13:48:21;15.40;99.90
1468;DHT22;727;48.892;9.544;2023-11-19T13:50:48;15.50;99.90
1468;DHT22;727;48.892;9.544;2023-11-19T13:53:15;15.80;99.90
1468;DHT22;727;48.892;9.544;2023-11-19T13:55:42;15.70;99.90
1468;DHT22;727;48.892;9.544;2023-11-19T13:58:10;15.70;99.90
1468;DHT22;727;48.892;9.544;2023-11-19T14:00:37;15.60;99.90
1468;DHT22;727;48.892;9.544;2023-11-19T14:03:04;15.40;99.90
1468;DHT22;727;48.892;9.544;2023-11-19T14:05:31;15.10;99.90
1468;DHT22;727;48.892;9.544;2023-11-19T14:07:57;15.00;99.90
1468;DHT22;727;48.892;9.544;2023-11-19T14:10:24;14.80;99.90
1468;DHT22;727;48.892;9.544;2023-11-19T14:12:51;14.70;99.90
1468;DHT22;727;48.892;9.544;2023-11-19T14:15:19;14.60;99.90
1468;DHT22;727;48.892;9.544;2023-11-19T14:17:46;14.60;99.90
1468;DHT22;727;48.892;9.544;2023-11-19T14:20:12;14.60;99.90
1468;DHT22;727;48.892;9.544;2023-11-19T14:22:41;14.50;99.90
1468;DHT22;727;48.892;9.544;2023-11-19T14:25:08;14.60;99.90
1468;DHT22;727;48.892;9.544;2023-11-19T14:27:36;14.60;99.90
1468;DHT22;727;48.892;9.544;2023-11-19T14:30:05;14.70;99.90
1468;DHT22;727;48.892;9.544;2023-11-19T14:32:33;14.70;99.90
1468;DHT22;727;48.892;9.544;2023-11-19T14:35:00;14.70;99.90
1468;DHT22;727;48.892;9.544;2023-11-19T14:37:27;14.60;99.90
1468;DHT22;727;48.892;9.544;2023-11-19T14:39:53;14.60;99.90
1468;DHT22;727;48.892;9.544;2023-11-19T14:42:20;14.50;99.90
1468;DHT22;727;48.892;9.544;2023-11-19T14:44:48;14.40;99.90
1468;DHT22;727;48.892;9.544;2023-11-19T14:47:14;14.30;99.90
1468;DHT22;727;48.892;9.544;2023-11-19T14:49:42;14.30;99.90
1468;DHT22;727;48.892;9.544;2023-11-19T14:52:09;14.20;98.40
1468;DHT22;727;48.892;9.544;2023-11-19T14:54:36;14.30;98.00
1468;DHT22;727;48.892;9.544;2023-11-19T14:57:04;14.20;98.20
1468;DHT22;727;48.892;9.544;2023-11-19T14:59:31;14.10;98.00
1468;DHT22;727;48.892;9.544;2023-11-19T15:01:58;14.00;98.30
1468;DHT22;727;48.892;9.544;2023-11-19T15:04:26;14.00;98.50
1468;DHT22;727;48.892;9.544;2023-11-19T15:06:56;13.90;98.80
1468;DHT22;727;48.892;9.544;2023-11-19T15:09:23;13.70;98.50
1468;DHT22;727;48.892;9.544;2023-11-19T15:11:50;13.60;99.00
1468;DHT22;727;48.892;9.544;2023-11-19T15:14:17;13.50;99.70
1468;DHT22;727;48.892;9.544;2023-11-19T15:16:45;13.30;99.90
1468;DHT22;727;48.892;9.544;2023-11-19T15:19:12;13.10;99.90
1468;DHT22;727;48.892;9.544;2023-11-19T15:21:39;13.00;99.90
1468;DHT22;727;48.892;9.544;2023-11-19T15:24:09;12.80;99.90
1468;DHT22;727;48.892;9.544;2023-11-19T15:26:36;12.70;99.90
1468;DHT22;727;48.892;9.544;2023-11-19T15:29:03;12.50;99.90
1468;DHT22;727;48.892;9.544;2023-11-19T15:31:30;12.40;99.90
1468;DHT22;727;48.892;9.544;2023-11-19T15:33:57;12.30;99.90
1468;DHT22;727;48.892;9.544;2023-11-19T15:36:23;12.10;99.90
1468;DHT22;727;48.892;9.544;2023-11-19T15:38:50;12.00;99.90
1468;DHT22;727;48.892;9.544;2023-11-19T15:41:18;11.90;99.90
1468;DHT22;727;48.892;9.544;2023-11-19T15:43:45;11.70;99.90
1468;DHT22;727;48.892;9.544;2023-11-19T15:46:12;11.50;99.90
1468;DHT22;727;48.892;9.544;2023-11-19T15:48:39;11.30;99.90
1468;DHT22;727;48.892;9.544;2023-11-19T15:51:06;11.10;99.90
1468;DHT22;727;48.892;9.544;2023-11-19T15:53:33;10.90;99.90
1468;DHT22;727;48.892;9.544;2023-11-19T15:56:00;10.80;99.90
1468;DHT22;727;48.892;9.544;2023-11-19T15:58:28;10.60;99.90
1468;DHT22;727;48.892;9.544;2023-11-19T16:00:55;10.50;99.90
1468;DHT22;727;48.892;9.544;2023-11-19T16:03:22;10.30;99.90
1468;DHT22;727;48.892;9.544;2023-11-19T16:05:49;10.30;99.90
1468;DHT22;727;48.892;9.544;2023-11-19T16:08:16;10.20;99.90
1468;DHT22;727;48.892;9.544;2023-11-19T16:10:43;10.10;99.90
1468;DHT22;727;48.892;9.544;2023-11-19T16:13:11;10.10;99.90
1468;DHT22;727;48.892;9.544;2023-11-19T16:15:39;10.10;99.90
1468;DHT22;727;48.892;9.544;2023-11-19T16:18:06;10.00;99.90
1468;DHT22;727;48.892;9.544;2023-11-19T16:20:35;10.10;99.90
1468;DHT22;727;48.892;9.544;2023-11-19T16:23:02;10.10;99.90
1468;DHT22;727;48.892;9.544;2023-11-19T16:25:29;10.10;99.90
1468;DHT22;727;48.892;9.544;2023-11-19T16:27:56;10.00;99.90
1468;DHT22;727;48.892;9.544;2023-11-19T16:30:24;10.00;99.90